Time;durP1;ratioP1;P1;durP2;ratioP2;P2;SDS_P1;SDS_P2;PMS_P1;PMS_P2;Temp;Humidity;BMP_temperature;BMP_pressure;BME280_temperature;BME280_humidity;BME280_pressure;Samples;Min_cycle;Max_cycle;Signal;HPM_P1;HPM_P2
2021/06/06 00:01:13;;;;;;;30.45;15.07;;;14.40;99.90;;;;;;4986074;28;20038;-72
2021/06/06 00:03:42;;;;;;;33.60;15.90;;;14.40;99.90;;;;;;4981825;28;20468;-73
2021/06/06 00:06:17;;;;;;;38.78;16.52;;;14.40;99.90;;;;;;4980689;28;20097;-72
2021/06/06 00:08:44;;;;;;;44.75;18.55;;;14.40;99.90;;;;;;4978493;28;20112;-72
2021/06/06 00:11:30;;;;;;;39.85;16.80;;;14.30;99.90;;;;;;4979071;28;20026;-73
2021/06/06 00:13:59;;;;;;;44.05;17.38;;;14.30;99.90;;;;;;4977988;28;20031;-72
2021/06/06 00:16:29;;;;;;;37.90;17.40;;;14.20;99.90;;;;;;4977229;28;20491;-73
2021/06/06 00:18:55;;;;;;;41.28;16.30;;;14.20;99.90;;;;;;4975197;28;20387;-72
2021/06/06 00:21:22;;;;;;;41.40;18.20;;;14.20;99.90;;;;;;4976187;28;20057;-73
2021/06/06 00:23:48;;;;;;;39.25;17.02;;;14.10;99.90;;;;;;4974748;28;20030;-72
2021/06/06 00:26:13;;;;;;;32.13;17.42;;;14.10;99.90;;;;;;4976290;28;20042;-72
2021/06/06 00:28:39;;;;;;;35.33;15.50;;;14.20;99.90;;;;;;4975568;28;20392;-73
2021/06/06 00:31:08;;;;;;;35.63;16.52;;;14.20;99.90;;;;;;4990542;28;20030;-72
2021/06/06 00:33:35;;;;;;;38.85;17.30;;;14.20;99.90;;;;;;4974763;28;20067;-72
2021/06/06 00:36:02;;;;;;;26.25;11.43;;;14.30;99.90;;;;;;4974362;28;20054;-72
2021/06/06 00:38:28;;;;;;;29.33;15.73;;;14.30;99.90;;;;;;4964527;28;20035;-72
2021/06/06 00:40:56;;;;;;;41.38;17.13;;;14.30;99.90;;;;;;4989033;28;20027;-72
2021/06/06 00:43:22;;;;;;;35.05;17.40;;;14.30;99.90;;;;;;4973596;28;20074;-73
2021/06/06 00:45:48;;;;;;;36.13;17.75;;;14.20;99.90;;;;;;4975283;28;20046;-71
2021/06/06 00:48:14;;;;;;;39.03;19.20;;;14.30;99.90;;;;;;4974885;28;20452;-71
2021/06/06 00:50:43;;;;;;;38.03;19.27;;;14.30;99.90;;;;;;4974722;28;20081;-71
2021/06/06 00:53:28;;;;;;;39.35;19.23;;;14.30;99.90;;;;;;4975251;28;20439;-72
2021/06/06 00:55:54;;;;;;;46.22;21.05;;;14.30;99.90;;;;;;4975102;28;20034;-73
2021/06/06 00:58:20;;;;;;;47.97;22.58;;;14.30;99.90;;;;;;4975015;28;20038;-71
2021/06/06 01:00:51;;;;;;;56.55;24.13;;;14.20;99.90;;;;;;4974577;28;20015;-72
2021/06/06 01:03:19;;;;;;;56.75;22.88;;;14.30;99.90;;;;;;4973538;28;20045;-72
2021/06/06 01:06:23;;;;;;;52.72;22.85;;;14.30;99.90;;;;;;4974244;28;20027;-71
2021/06/06 01:08:49;;;;;;;58.08;25.88;;;14.30;99.90;;;;;;4974592;28;20502;-72
2021/06/06 01:11:37;;;;;;;55.20;23.98;;;14.20;99.90;;;;;;4989484;28;20043;-72
2021/06/06 01:14:13;;;;;;;59.85;25.95;;;14.10;99.90;;;;;;4973253;28;20034;-72
2021/06/06 01:16:46;;;;;;;53.47;24.10;;;14.10;99.90;;;;;;4974543;28;20041;-73
2021/06/06 01:19:18;;;;;;;60.13;24.08;;;14.20;99.90;;;;;;4982121;28;20118;-72
2021/06/06 01:22:12;;;;;;;60.83;25.35;;;14.20;99.90;;;;;;4973525;28;20046;-72
2021/06/06 01:24:41;;;;;;;62.00;24.83;;;14.20;99.90;;;;;;4972503;28;20030;-72
2021/06/06 01:27:14;;;;;;;64.35;25.60;;;14.20;99.90;;;;;;4974062;28;20049;-72
2021/06/06 01:30:00;;;;;;;60.28;24.42;;;14.10;99.90;;;;;;4955254;28;20043;-72
2021/06/06 01:32:41;;;;;;;65.85;24.95;;;14.20;99.90;;;;;;4958745;28;20480;-73
2021/06/06 01:35:15;;;;;;;52.70;23.05;;;14.20;99.90;;;;;;4974430;28;20035;-72
2021/06/06 01:37:56;;;;;;;53.40;21.85;;;14.20;99.90;;;;;;4973320;28;20046;-72
2021/06/06 01:40:25;;;;;;;57.65;23.42;;;14.20;99.90;;;;;;4974483;28;20110;-72
2021/06/06 01:42:55;;;;;;;52.92;22.60;;;14.20;99.90;;;;;;4973940;28;20038;-72
2021/06/06 01:45:47;;;;;;;53.38;22.10;;;14.30;99.90;;;;;;4972347;28;20019;-72
2021/06/06 01:48:14;;;;;;;56.17;24.23;;;14.30;99.90;;;;;;4957258;28;20166;-72
2021/06/06 01:50:53;;;;;;;60.60;23.67;;;14.30;99.90;;;;;;4973310;28;20023;-71
2021/06/06 01:53:21;;;;;;;57.75;25.98;;;14.30;99.90;;;;;;4974869;28;20038;-72
2021/06/06 01:55:50;;;;;;;57.80;25.92;;;14.20;99.90;;;;;;4974693;28;20530;-72
2021/06/06 01:58:18;;;;;;;64.18;24.83;;;14.20;99.90;;;;;;4974446;28;20027;-72
2021/06/06 02:01:06;;;;;;;68.38;25.73;;;14.20;99.90;;;;;;4974546;28;20476;-72
2021/06/06 02:03:32;;;;;;;65.93;24.88;;;14.10;99.90;;;;;;4970244;28;20118;-72
2021/06/06 02:05:58;;;;;;;61.30;27.45;;;14.20;99.90;;;;;;4973860;28;20116;-72
2021/06/06 02:08:28;;;;;;;67.15;27.33;;;14.10;99.90;;;;;;4972829;28;20038;-72
2021/06/06 02:11:06;;;;;;;69.60;28.13;;;14.10;99.90;;;;;;4974280;28;20034;-72
2021/06/06 02:13:44;;;;;;;62.83;25.27;;;14.10;99.90;;;;;;4973631;28;20023;-72
2021/06/06 02:16:13;;;;;;;68.30;25.45;;;14.20;99.90;;;;;;4972642;28;20047;-72
2021/06/06 02:18:40;;;;;;;61.75;25.23;;;14.10;99.90;;;;;;4973932;28;20070;-72
2021/06/06 02:21:06;;;;;;;55.55;22.50;;;14.20;99.90;;;;;;4974248;28;20031;-72
2021/06/06 02:23:35;;;;;;;59.70;24.25;;;14.10;99.90;;;;;;4973986;28;20357;-72
2021/06/06 02:26:11;;;;;;;60.63;23.48;;;14.10;99.90;;;;;;4972478;28;20070;-73
2021/06/06 02:29:20;;;;;;;58.30;22.70;;;14.20;99.90;;;;;;4974086;28;20475;-72
2021/06/06 02:32:01;;;;;;;54.35;24.20;;;14.20;99.90;;;;;;4971691;28;20039;-72
2021/06/06 02:34:31;;;;;;;48.50;22.17;;;14.20;99.90;;;;;;4963248;28;20058;-72
2021/06/06 02:37:04;;;;;;;55.80;24.05;;;14.20;99.90;;;;;;4972246;28;20037;-72
2021/06/06 02:39:38;;;;;;;63.22;26.20;;;14.10;99.90;;;;;;4973841;28;20388;-72
2021/06/06 02:42:09;;;;;;;66.53;23.85;;;14.10;99.90;;;;;;4973496;28;20058;-72
2021/06/06 02:44:53;;;;;;;63.92;24.02;;;14.10;99.90;;;;;;4974006;28;20085;-72
2021/06/06 02:47:28;;;;;;;61.35;25.08;;;14.10;99.90;;;;;;4987952;28;20024;-74
2021/06/06 02:49:57;;;;;;;53.75;22.63;;;14.10;99.90;;;;;;4974039;28;20407;-73
2021/06/06 02:52:40;;;;;;;62.92;25.33;;;14.10;99.90;;;;;;4972189;28;20118;-72
2021/06/06 02:55:16;;;;;;;58.28;21.88;;;14.10;99.90;;;;;;4974473;28;20383;-73
2021/06/06 02:57:48;;;;;;;58.70;22.73;;;14.10;99.90;;;;;;4976669;28;20026;-72
2021/06/06 03:00:20;;;;;;;49.95;21.20;;;14.10;99.90;;;;;;4977388;28;20034;-71
2021/06/06 03:02:51;;;;;;;46.47;20.30;;;14.10;99.90;;;;;;4978364;28;20081;-72
2021/06/06 03:05:19;;;;;;;56.40;19.73;;;14.00;99.90;;;;;;4978586;28;20027;-73
2021/06/06 03:07:50;;;;;;;40.90;17.17;;;14.10;99.90;;;;;;4986901;28;20030;-73
2021/06/06 03:10:21;;;;;;;45.55;17.45;;;14.10;99.90;;;;;;4989782;28;20041;-72
2021/06/06 03:12:49;;;;;;;47.88;16.77;;;14.00;99.90;;;;;;4969451;28;20046;-72
2021/06/06 03:15:17;;;;;;;47.33;17.83;;;14.00;99.90;;;;;;4987002;28;20034;-71
2021/06/06 03:17:45;;;;;;;37.45;15.40;;;14.00;99.90;;;;;;4995648;28;20027;-72
2021/06/06 03:20:26;;;;;;;33.83;14.05;;;14.00;99.90;;;;;;4997189;28;20089;-72
2021/06/06 03:22:54;;;;;;;38.38;14.60;;;14.00;99.90;;;;;;4996598;28;20014;-73
2021/06/06 03:25:32;;;;;;;28.90;13.43;;;14.00;99.90;;;;;;4997438;28;20030;-71
2021/06/06 03:27:58;;;;;;;30.38;14.15;;;14.00;99.90;;;;;;4998835;28;20038;-72
2021/06/06 03:30:49;;;;;;;27.48;12.13;;;14.00;99.90;;;;;;4991548;28;20038;-71
2021/06/06 03:33:22;;;;;;;29.13;13.85;;;14.00;99.90;;;;;;4981732;28;20442;-72
2021/06/06 03:35:48;;;;;;;29.27;13.30;;;14.00;99.90;;;;;;4982135;28;20471;-72
2021/06/06 03:38:15;;;;;;;22.70;11.98;;;14.10;99.90;;;;;;4984667;28;20113;-72
2021/06/06 03:40:45;;;;;;;23.27;11.90;;;14.10;99.90;;;;;;4978078;28;20023;-72
2021/06/06 03:43:13;;;;;;;28.17;12.63;;;14.10;99.90;;;;;;4978967;28;20023;-72
2021/06/06 03:45:40;;;;;;;21.33;12.05;;;14.10;99.90;;;;;;4977756;28;20031;-72
2021/06/06 03:48:06;;;;;;;24.80;10.75;;;14.10;99.90;;;;;;4976419;28;20026;-71
2021/06/06 03:50:35;;;;;;;23.33;10.40;;;14.20;99.90;;;;;;4976724;28;20154;-71
2021/06/06 03:53:01;;;;;;;19.90;10.32;;;14.20;99.90;;;;;;4976485;28;20023;-72
2021/06/06 03:55:27;;;;;;;20.33;11.30;;;14.30;99.90;;;;;;4976744;28;20037;-72
2021/06/06 03:57:53;;;;;;;17.98;9.77;;;14.30;99.90;;;;;;4975772;28;20479;-71
2021/06/06 04:00:33;;;;;;;17.92;9.07;;;14.20;99.90;;;;;;4975124;28;20094;-72
2021/06/06 04:03:00;;;;;;;17.15;8.50;;;14.20;99.90;;;;;;4975963;28;20026;-73
2021/06/06 04:05:27;;;;;;;17.80;9.77;;;14.10;99.90;;;;;;4975690;28;20029;-71
2021/06/06 04:07:53;;;;;;;19.25;9.68;;;14.20;99.90;;;;;;4974611;28;20369;-71
2021/06/06 04:10:19;;;;;;;16.08;9.48;;;14.10;99.90;;;;;;4974337;28;20049;-72
2021/06/06 04:12:46;;;;;;;17.48;9.45;;;14.00;99.90;;;;;;4975578;28;20041;-72
2021/06/06 04:15:12;;;;;;;15.27;9.45;;;14.00;99.90;;;;;;4974076;28;20499;-71
2021/06/06 04:17:38;;;;;;;14.40;8.85;;;14.00;99.90;;;;;;4975383;28;20077;-72
2021/06/06 04:20:06;;;;;;;16.33;9.45;;;13.90;99.90;;;;;;4975018;28;20030;-71
2021/06/06 04:22:31;;;;;;;13.63;9.52;;;13.90;99.90;;;;;;4975493;28;20019;-73
2021/06/06 04:24:57;;;;;;;16.92;9.68;;;13.90;99.90;;;;;;4974040;28;20411;-72
2021/06/06 04:27:23;;;;;;;17.90;10.02;;;13.80;99.90;;;;;;4971164;28;20169;-72
2021/06/06 04:29:48;;;;;;;18.52;9.95;;;13.80;99.90;;;;;;4975168;28;20037;-72
2021/06/06 04:32:16;;;;;;;18.75;10.02;;;13.70;99.90;;;;;;4974122;28;20034;-72
2021/06/06 04:34:43;;;;;;;19.45;10.00;;;13.70;99.90;;;;;;4973610;28;20468;-72
2021/06/06 04:37:10;;;;;;;17.02;10.18;;;13.70;99.90;;;;;;4974171;28;20383;-72
2021/06/06 04:39:37;;;;;;;18.60;9.43;;;13.80;99.90;;;;;;4975311;28;20022;-71
2021/06/06 04:42:04;;;;;;;20.92;10.65;;;13.80;99.90;;;;;;4975072;28;20074;-72
2021/06/06 04:44:30;;;;;;;22.33;11.15;;;13.80;99.90;;;;;;4974386;28;20375;-71
2021/06/06 04:46:55;;;;;;;15.32;9.75;;;13.80;99.90;;;;;;4975229;28;20101;-71
2021/06/06 04:49:21;;;;;;;20.77;9.57;;;13.80;99.90;;;;;;4974550;28;20438;-72
2021/06/06 04:51:47;;;;;;;19.67;8.68;;;13.90;99.90;;;;;;4974928;28;20361;-72
2021/06/06 04:54:12;;;;;;;16.92;9.70;;;13.90;99.90;;;;;;4974300;28;20117;-73
2021/06/06 04:56:38;;;;;;;15.90;9.38;;;13.90;99.90;;;;;;4974285;28;20034;-73
2021/06/06 04:59:04;;;;;;;16.50;9.57;;;13.90;99.90;;;;;;4966399;28;20030;-71
2021/06/06 05:01:31;;;;;;;15.07;9.82;;;13.90;99.90;;;;;;4974071;28;20039;-71
2021/06/06 05:03:57;;;;;;;22.40;9.60;;;13.90;99.90;;;;;;4974484;28;20106;-72
2021/06/06 05:06:23;;;;;;;16.88;9.95;;;13.80;99.90;;;;;;4974605;28;20022;-72
2021/06/06 05:08:49;;;;;;;16.25;9.23;;;13.80;99.90;;;;;;4973300;28;20484;-74
2021/06/06 05:11:15;;;;;;;17.48;9.07;;;13.80;99.90;;;;;;4973262;28;20026;-71
2021/06/06 05:13:41;;;;;;;22.38;10.25;;;13.90;99.90;;;;;;4973168;28;20184;-71
2021/06/06 05:16:07;;;;;;;19.70;9.82;;;13.90;99.90;;;;;;4970085;28;20023;-72
2021/06/06 05:18:34;;;;;;;21.15;9.55;;;13.90;99.90;;;;;;4974094;28;20027;-72
2021/06/06 05:21:00;;;;;;;22.73;10.18;;;13.90;99.90;;;;;;4974463;28;20027;-71
2021/06/06 05:23:28;;;;;;;20.50;9.80;;;13.90;99.90;;;;;;4974381;28;20110;-72
2021/06/06 05:25:54;;;;;;;13.00;8.70;;;14.00;99.90;;;;;;4971860;28;20121;-72
2021/06/06 05:28:26;;;;;;;15.18;9.73;;;14.10;99.90;;;;;;4972844;28;20475;-72
2021/06/06 05:30:53;;;;;;;20.60;9.88;;;14.20;99.90;;;;;;4969558;28;20066;-72
2021/06/06 05:33:19;;;;;;;19.65;10.15;;;14.20;99.90;;;;;;4974130;28;20034;-72
2021/06/06 05:35:44;;;;;;;18.40;11.43;;;14.30;99.90;;;;;;4974243;28;20038;-72
2021/06/06 05:38:11;;;;;;;18.65;10.55;;;14.30;99.90;;;;;;4973621;28;20039;-72
2021/06/06 05:40:38;;;;;;;24.17;12.07;;;14.30;99.90;;;;;;4974551;28;20023;-72
2021/06/06 05:43:05;;;;;;;22.17;11.02;;;14.30;99.90;;;;;;4973951;28;20360;-71
2021/06/06 05:45:31;;;;;;;18.67;11.30;;;14.40;99.90;;;;;;4974135;28;20027;-71
2021/06/06 05:47:58;;;;;;;27.30;13.18;;;14.40;99.90;;;;;;4973840;28;20046;-71
2021/06/06 05:50:26;;;;;;;33.47;14.00;;;14.50;99.90;;;;;;4972406;28;20114;-72
2021/06/06 05:52:52;;;;;;;25.08;13.38;;;14.50;99.90;;;;;;4974134;28;20049;-72
2021/06/06 05:55:20;;;;;;;25.40;13.55;;;14.60;99.90;;;;;;4970947;28;20109;-72
2021/06/06 05:57:46;;;;;;;28.10;14.40;;;14.80;99.90;;;;;;4965923;28;20039;-72
2021/06/06 06:00:17;;;;;;;26.17;13.75;;;14.90;99.90;;;;;;4972664;28;20078;-72
2021/06/06 06:02:43;;;;;;;27.50;13.45;;;15.20;99.90;;;;;;4973025;28;20041;-72
2021/06/06 06:05:09;;;;;;;29.65;14.55;;;15.60;99.90;;;;;;4972561;28;20109;-72
2021/06/06 06:07:35;;;;;;;25.10;12.68;;;15.70;99.90;;;;;;4972878;28;20373;-71
2021/06/06 06:10:06;;;;;;;24.05;12.57;;;16.90;99.90;;;;;;4972520;28;20022;-71
2021/06/06 06:12:31;;;;;;;22.13;12.52;;;17.10;99.90;;;;;;4971733;28;20120;-71
2021/06/06 06:14:57;;;;;;;24.05;13.43;;;16.50;99.90;;;;;;4974060;28;20078;-72
2021/06/06 06:17:23;;;;;;;19.52;12.55;;;16.00;99.90;;;;;;4973789;28;20476;-71
2021/06/06 06:19:48;;;;;;;23.45;11.95;;;15.70;99.90;;;;;;4972768;28;20027;-72
2021/06/06 06:22:14;;;;;;;24.98;13.80;;;15.40;99.90;;;;;;4973961;28;20026;-72
2021/06/06 06:24:39;;;;;;;28.05;15.45;;;15.30;99.90;;;;;;4973272;28;20046;-72
2021/06/06 06:27:05;;;;;;;29.38;14.63;;;15.20;99.90;;;;;;4974237;28;20475;-71
2021/06/06 06:29:31;;;;;;;22.48;13.45;;;15.10;99.90;;;;;;4972318;28;20105;-72
2021/06/06 06:31:57;;;;;;;22.55;13.27;;;15.10;99.90;;;;;;4977033;28;20437;-71
2021/06/06 06:34:23;;;;;;;22.50;13.15;;;15.50;99.90;;;;;;4977564;28;20110;-72
2021/06/06 06:36:49;;;;;;;21.33;13.90;;;16.00;99.90;;;;;;4977403;28;20129;-71
2021/06/06 06:39:15;;;;;;;23.90;13.50;;;16.20;99.90;;;;;;4969371;28;20023;-72
2021/06/06 06:41:40;;;;;;;24.65;13.13;;;16.80;99.90;;;;;;4984707;28;20022;-72
2021/06/06 06:44:06;;;;;;;19.73;11.95;;;16.80;99.90;;;;;;4982745;28;20110;-72
2021/06/06 06:46:32;;;;;;;20.00;13.23;;;17.40;99.90;;;;;;4983486;28;20061;-72
2021/06/06 06:48:59;;;;;;;25.75;12.68;;;17.40;99.90;;;;;;4979383;28;20022;-71
2021/06/06 06:51:25;;;;;;;24.20;14.27;;;17.30;99.90;;;;;;4977982;28;20034;-73
2021/06/06 06:53:54;;;;;;;23.92;14.20;;;17.10;99.90;;;;;;4964734;28;20065;-72
2021/06/06 06:56:22;;;;;;;24.50;13.25;;;17.90;99.90;;;;;;4971002;28;20067;-72
2021/06/06 06:58:47;;;;;;;;;;;18.30;99.90;;;;;;4983779;28;20034;-72
2021/06/06 07:01:13;;;;;;;21.48;12.55;;;18.30;99.90;;;;;;4990691;28;19921;-72
2021/06/06 07:03:38;;;;;;;18.52;11.25;;;17.80;99.90;;;;;;4993852;28;20031;-71
2021/06/06 07:06:06;;;;;;;17.48;11.45;;;17.70;99.90;;;;;;4994140;28;20030;-70
2021/06/06 07:08:33;;;;;;;;;;;18.00;99.90;;;;;;4988318;28;20488;-71
2021/06/06 07:11:00;;;;;;;17.25;10.65;;;19.00;99.90;;;;;;4988152;28;20011;-71
2021/06/06 07:13:27;;;;;;;19.47;11.90;;;19.80;99.90;;;;;;4988921;28;20027;-72
2021/06/06 07:15:54;;;;;;;15.27;9.93;;;20.90;99.90;;;;;;4986024;28;20356;-71
2021/06/06 07:18:21;;;;;;;17.30;9.70;;;22.20;99.90;;;;;;4986156;28;20015;-71
2021/06/06 07:20:49;;;;;;;;;;;22.00;99.90;;;;;;4980559;28;20502;-71
2021/06/06 07:23:16;;;;;;;15.57;8.90;;;21.40;99.90;;;;;;4979942;28;20382;-71
2021/06/06 07:25:43;;;;;;;16.37;8.57;;;20.60;99.90;;;;;;4977632;28;20027;-71
2021/06/06 07:28:11;;;;;;;14.23;9.48;;;21.10;99.90;;;;;;4964440;28;20290;-71
2021/06/06 07:30:42;;;;;;;19.45;9.60;;;21.40;99.90;;;;;;4974838;28;20110;-72
2021/06/06 07:33:09;;;;;;;16.45;9.68;;;21.10;99.90;;;;;;4973169;28;20023;-72
2021/06/06 07:35:35;;;;;;;14.37;9.27;;;20.70;99.90;;;;;;4959026;29;20191;-72
2021/06/06 07:38:02;;;;;;;16.63;9.55;;;20.10;99.90;;;;;;4967384;28;20046;-71
2021/06/06 07:40:33;;;;;;;14.43;8.82;;;20.20;99.90;;;;;;4977134;28;20019;-72
2021/06/06 07:42:59;;;;;;;16.92;8.27;;;19.80;99.90;;;;;;4973840;28;20027;-72
2021/06/06 07:45:26;;;;;;;13.68;8.85;;;19.30;99.90;;;;;;4975600;28;20439;-71
2021/06/06 07:47:52;;;;;;;12.73;7.60;;;18.90;99.90;;;;;;4975874;28;20143;-71
2021/06/06 07:50:22;;;;;;;12.55;7.72;;;18.50;99.90;;;;;;4975445;28;20023;-71
2021/06/06 07:52:47;;;;;;;17.55;8.10;;;18.30;99.90;;;;;;4975297;28;20383;-70
2021/06/06 07:55:16;;;;;;;11.32;7.75;;;18.30;99.90;;;;;;4974924;28;20043;-72
2021/06/06 07:57:43;;;;;;;10.43;7.00;;;18.40;99.90;;;;;;4975177;28;20034;-72
2021/06/06 08:00:18;;;;;;;9.23;7.18;;;18.40;99.90;;;;;;4975076;28;20053;-71
2021/06/06 08:02:44;;;;;;;11.82;6.78;;;18.40;99.90;;;;;;4975000;28;20022;-71
2021/06/06 08:05:10;;;;;;;12.60;6.38;;;18.60;99.90;;;;;;4974922;28;20027;-71
2021/06/06 08:07:36;;;;;;;8.98;5.70;;;18.80;99.90;;;;;;4975221;28;20030;-72
2021/06/06 08:10:04;;;;;;;12.13;6.18;;;19.00;99.90;;;;;;4974580;28;20142;-71
2021/06/06 08:12:30;;;;;;;11.15;7.20;;;19.10;99.90;;;;;;4975140;28;20029;-72
2021/06/06 08:14:56;;;;;;;15.80;6.63;;;19.10;99.90;;;;;;4974745;28;20027;-72
2021/06/06 08:17:23;;;;;;;7.75;5.80;;;19.50;99.90;;;;;;4976165;28;20161;-72
2021/06/06 08:19:50;;;;;;;10.73;5.72;;;19.70;99.90;;;;;;4974655;28;20023;-72
2021/06/06 08:22:16;;;;;;;8.87;5.87;;;19.70;99.90;;;;;;4974061;28;20027;-71
2021/06/06 08:24:42;;;;;;;8.80;5.38;;;19.80;99.90;;;;;;4974831;28;20467;-72
2021/06/06 08:27:08;;;;;;;4.72;3.90;;;20.10;99.90;;;;;;4973533;28;20126;-71
2021/06/06 08:29:34;;;;;;;6.97;4.15;;;20.20;99.90;;;;;;4974864;28;20558;-71
2021/06/06 08:32:00;;;;;;;6.35;4.72;;;20.50;99.90;;;;;;4973577;28;20038;-71
2021/06/06 08:34:27;;;;;;;6.13;4.03;;;20.80;99.90;;;;;;4974757;28;20459;-71
2021/06/06 08:36:56;;;;;;;4.70;4.28;;;20.40;99.90;;;;;;4975231;28;20031;-71
2021/06/06 08:39:25;;;;;;;5.97;3.10;;;20.40;99.90;;;;;;4975096;28;20118;-70
2021/06/06 08:41:59;;;;;;;4.53;3.58;;;20.40;99.90;;;;;;4973938;28;20550;-71
2021/06/06 08:44:36;;;;;;;3.80;3.50;;;20.80;99.90;;;;;;4972665;28;20043;-70
2021/06/06 08:47:14;;;;;;;6.68;3.55;;;21.40;99.90;;;;;;4975018;28;20030;-71
2021/06/06 08:49:56;;;;;;;6.72;3.17;;;21.40;99.90;;;;;;4975157;28;20480;-71
2021/06/06 08:53:03;;;;;;;4.13;2.90;;;21.50;99.90;;;;;;4972924;28;20026;-73
2021/06/06 08:55:28;;;;;;;;;;;21.90;99.90;;;;;;4950275;28;20122;-72
2021/06/06 08:58:28;;;;;;;5.18;3.53;;;22.10;99.90;;;;;;4965292;28;20005;-72
2021/06/06 09:01:01;;;;;;;4.88;3.53;;;22.10;99.90;;;;;;4966015;28;20031;-70
2021/06/06 09:03:29;;;;;;;5.60;3.63;;;21.70;99.90;;;;;;4973893;28;20027;-70
2021/06/06 09:06:04;;;;;;;5.72;4.03;;;21.50;99.90;;;;;;4974018;28;20031;-71
2021/06/06 09:08:33;;;;;;;5.93;3.42;;;21.40;99.90;;;;;;4972423;28;20118;-71
2021/06/06 09:11:03;;;;;;;5.72;4.13;;;21.30;99.90;;;;;;4973562;28;20027;-71
2021/06/06 09:13:31;;;;;;;5.32;3.20;;;21.30;99.90;;;;;;4972419;28;20031;-71
2021/06/06 09:16:12;;;;;;;6.25;3.05;;;21.40;99.90;;;;;;4970950;28;20530;-70
2021/06/06 09:18:40;;;;;;;5.75;3.97;;;21.20;99.90;;;;;;4971488;28;20038;-71
2021/06/06 09:21:13;;;;;;;5.10;3.40;;;21.10;99.90;;;;;;4972750;28;20018;-71
2021/06/06 09:23:39;;;;;;;7.82;3.55;;;20.80;99.90;;;;;;4973552;28;20033;-72
2021/06/06 09:26:21;;;;;;;8.65;4.25;;;21.00;99.90;;;;;;4973114;28;20030;-71
2021/06/06 09:29:00;;;;;;;7.07;3.72;;;20.70;99.90;;;;;;4970698;28;20031;-71
2021/06/06 09:31:27;;;;;;;4.00;3.15;;;20.40;99.90;;;;;;4971689;28;20037;-72
2021/06/06 09:33:52;;;;;;;6.30;3.63;;;20.30;99.90;;;;;;4973667;28;20035;-72
2021/06/06 09:36:20;;;;;;;5.15;2.67;;;20.10;99.90;;;;;;4972988;28;20085;-71
2021/06/06 09:38:52;;;;;;;7.60;3.63;;;20.00;99.90;;;;;;4972587;28;20487;-72
2021/06/06 09:41:38;;;;;;;4.82;3.03;;;20.00;99.90;;;;;;4970693;28;20031;-71
2021/06/06 09:44:16;;;;;;;7.50;3.70;;;20.00;99.90;;;;;;4973146;28;20041;-71
2021/06/06 09:46:51;;;;;;;9.20;3.20;;;20.10;99.90;;;;;;4971890;28;20057;-72
2021/06/06 09:49:34;;;;;;;9.68;3.90;;;20.00;99.90;;;;;;4973178;28;20105;-71
2021/06/06 09:52:16;;;;;;;6.85;4.35;;;20.20;99.90;;;;;;4971057;28;20035;-71
2021/06/06 09:54:53;;;;;;;7.18;3.85;;;20.30;99.90;;;;;;4973234;28;20030;-71
2021/06/06 09:57:31;;;;;;;10.07;3.10;;;20.50;99.90;;;;;;4986211;28;20054;-71
2021/06/06 10:00:11;;;;;;;5.75;3.03;;;20.80;99.90;;;;;;4972974;28;20033;-71
2021/06/06 10:02:39;;;;;;;5.80;2.85;;;20.70;99.90;;;;;;4972672;28;20027;-71
2021/06/06 10:05:11;;;;;;;5.07;2.70;;;21.30;99.90;;;;;;4973422;28;20467;-71
2021/06/06 10:07:40;;;;;;;3.33;2.60;;;21.80;99.90;;;;;;4977576;28;20035;-72
2021/06/06 10:10:16;;;;;;;3.58;2.78;;;22.00;99.90;;;;;;4977027;28;20027;-71
2021/06/06 10:12:46;;;;;;;5.70;2.30;;;22.00;99.90;;;;;;4976538;28;20435;-71
2021/06/06 10:15:32;;;;;;;2.80;2.58;;;22.10;99.90;;;;;;4977471;28;20771;-72
2021/06/06 10:18:09;;;;;;;4.72;2.30;;;21.90;99.90;;;;;;4977071;28;20023;-71
2021/06/06 10:20:39;;;;;;;3.17;2.00;;;21.80;99.90;;;;;;4973895;28;20035;-71
2021/06/06 10:23:21;;;;;;;3.70;1.85;;;21.60;99.90;;;;;;4977895;28;20023;-73
2021/06/06 10:26:20;;;;;;;2.00;1.75;;;21.60;99.20;;;;;;4977234;28;20027;-72
2021/06/06 10:28:54;;;;;;;2.72;1.67;;;21.80;99.60;;;;;;4974969;28;20054;-71
2021/06/06 10:31:26;;;;;;;3.63;1.73;;;21.50;98.60;;;;;;4976654;28;20031;-72
2021/06/06 10:36:41;;;;;;;4.53;2.38;;;21.70;99.60;;;;;;4977801;28;20510;-73
2021/06/06 10:39:21;;;;;;;4.43;1.55;;;21.70;98.70;;;;;;4975116;28;20031;-71
2021/06/06 10:42:08;;;;;;;5.13;1.90;;;21.60;98.50;;;;;;4977768;28;20033;-71
2021/06/06 10:44:36;;;;;;;2.65;1.92;;;21.60;98.30;;;;;;4976509;28;20073;-72
2021/06/06 10:47:13;;;;;;;3.92;1.55;;;21.20;99.20;;;;;;4989156;28;20035;-71
2021/06/06 10:50:12;;;;;;;2.95;1.55;;;21.20;99.50;;;;;;4976120;28;20045;-71
2021/06/06 10:52:39;;;;;;;1.30;1.20;;;21.10;99.00;;;;;;4958132;28;20063;-71
2021/06/06 10:55:28;;;;;;;3.30;1.63;;;21.10;98.40;;;;;;4967369;28;20518;-71
2021/06/06 10:57:54;;;;;;;3.83;1.40;;;21.20;97.90;;;;;;4976064;28;20039;-72
2021/06/06 11:00:46;;;;;;;2.40;1.30;;;21.00;98.00;;;;;;4977111;28;20015;-71
2021/06/06 11:03:12;;;;;;;3.80;1.10;;;20.80;99.30;;;;;;4968952;28;20081;-72
2021/06/06 11:05:52;;;;;;;3.20;1.30;;;21.00;99.20;;;;;;4977461;28;20050;-71
2021/06/06 11:08:37;;;;;;;5.00;1.00;;;21.10;98.50;;;;;;4977161;28;20030;-73
2021/06/06 11:11:37;;;;;;;3.33;1.00;;;21.20;98.20;;;;;;4976918;28;20030;-72
2021/06/06 11:14:08;;;;;;;2.20;0.82;;;21.20;98.10;;;;;;4975299;28;20039;-71
2021/06/06 11:16:43;;;;;;;4.25;1.33;;;21.10;98.70;;;;;;4976400;28;20022;-72
2021/06/06 11:19:18;;;;;;;3.47;1.38;;;21.30;98.80;;;;;;4977320;28;20027;-71
2021/06/06 11:22:13;;;;;;;2.58;0.82;;;21.30;97.90;;;;;;4973756;28;20030;-71
2021/06/06 11:24:41;;;;;;;5.85;1.23;;;21.30;97.30;;;;;;4968457;28;20045;-72
2021/06/06 11:27:10;;;;;;;6.28;1.05;;;21.20;97.80;;;;;;4976665;28;20029;-71
2021/06/06 11:29:57;;;;;;;5.80;1.20;;;21.10;97.60;;;;;;4977173;28;20486;-71
2021/06/06 11:32:52;;;;;;;2.38;0.93;;;21.00;97.50;;;;;;4972937;28;20038;-71
2021/06/06 11:35:26;;;;;;;0.95;0.90;;;21.20;98.10;;;;;;4970510;28;20026;-71
2021/06/06 11:37:55;;;;;;;4.20;0.95;;;21.30;97.40;;;;;;4976011;28;20441;-71
2021/06/06 11:40:36;;;;;;;3.13;0.93;;;21.40;98.00;;;;;;4991292;28;20114;-73
2021/06/06 11:43:25;;;;;;;1.60;1.00;;;21.20;99.40;;;;;;4972895;28;20046;-73
2021/06/06 11:45:53;;;;;;;4.22;0.90;;;21.30;99.10;;;;;;4971581;28;20391;-73
2021/06/06 11:48:32;;;;;;;2.33;0.90;;;21.20;99.00;;;;;;4974415;28;20058;-71
2021/06/06 11:50:59;;;;;;;1.85;0.80;;;21.40;99.00;;;;;;4975186;28;20027;-73
2021/06/06 11:53:37;;;;;;;0.98;0.70;;;21.60;97.50;;;;;;4975949;28;20034;-71
2021/06/06 11:56:25;;;;;;;1.25;0.70;;;21.60;96.90;;;;;;4975710;28;20103;-73
2021/06/06 11:59:03;;;;;;;1.92;0.90;;;21.80;97.20;;;;;;4976552;28;20031;-72
2021/06/06 12:01:31;;;;;;;3.13;0.80;;;21.80;97.20;;;;;;4975816;28;20035;-72
2021/06/06 12:04:07;;;;;;;2.97;0.90;;;21.60;96.80;;;;;;4975945;28;20034;-72
2021/06/06 12:06:34;;;;;;;2.72;0.90;;;21.50;97.30;;;;;;4983940;28;20082;-72
2021/06/06 12:09:14;;;;;;;2.43;1.03;;;21.70;97.30;;;;;;4974853;28;20039;-72
2021/06/06 12:11:41;;;;;;;2.70;0.80;;;21.80;96.60;;;;;;4975914;28;20035;-72
2021/06/06 12:14:29;;;;;;;6.38;1.00;;;21.70;97.10;;;;;;4975693;28;20549;-72
2021/06/06 12:17:02;;;;;;;3.97;0.85;;;21.80;97.20;;;;;;4975818;28;20027;-72
2021/06/06 12:20:03;;;;;;;2.33;0.90;;;21.80;97.10;;;;;;4974484;28;20073;-72
2021/06/06 12:22:38;;;;;;;0.80;0.63;;;21.80;96.80;;;;;;4973558;28;20399;-72
2021/06/06 12:25:09;;;;;;;0.90;0.60;;;21.80;96.10;;;;;;4974616;28;20046;-72
2021/06/06 12:28:07;;;;;;;7.47;1.15;;;21.80;96.60;;;;;;4973495;28;20027;-72
2021/06/06 12:30:47;;;;;;;0.85;0.60;;;22.00;96.10;;;;;;4971526;28;20043;-72
2021/06/06 12:33:16;;;;;;;3.75;0.60;;;22.00;95.80;;;;;;4975812;28;20114;-72
2021/06/06 12:35:53;;;;;;;4.60;1.00;;;21.80;96.50;;;;;;4975524;28;20037;-72
2021/06/06 12:38:21;;;;;;;1.27;0.73;;;21.80;94.80;;;;;;4974708;28;20039;-72
2021/06/06 12:40:48;;;;;;;1.20;0.68;;;21.90;96.00;;;;;;4977990;28;20082;-71
2021/06/06 12:43:18;;;;;;;4.32;1.20;;;22.00;96.10;;;;;;4982742;28;20018;-70
2021/06/06 12:45:45;;;;;;;1.00;0.80;;;22.10;95.90;;;;;;4969327;28;20038;-71
2021/06/06 12:48:23;;;;;;;3.40;0.82;;;22.30;95.70;;;;;;4971065;28;20070;-71
2021/06/06 12:50:49;;;;;;;3.08;0.57;;;22.20;96.40;;;;;;4970667;28;20357;-71
2021/06/06 12:53:15;;;;;;;2.08;1.02;;;22.10;95.40;;;;;;4973083;28;20047;-71
2021/06/06 12:55:43;;;;;;;3.50;0.90;;;22.10;95.80;;;;;;4966203;28;20089;-71
2021/06/06 12:58:13;;;;;;;1.92;0.95;;;22.10;95.50;;;;;;4973459;28;20043;-71
2021/06/06 13:00:46;;;;;;;1.63;0.82;;;22.10;95.70;;;;;;4973798;28;20399;-72
2021/06/06 13:03:27;;;;;;;3.60;1.10;;;22.30;95.00;;;;;;4976544;28;20182;-71